Time;durP1;ratioP1;P1;durP2;ratioP2;P2;SDS_P1;SDS_P2;PMS_P1;PMS_P2;Temp;Humidity;BMP_temperature;BMP_pressure;BME280_temperature;BME280_humidity;BME280_pressure;Samples;Min_cycle;Max_cycle;Signal;HPM_P1;HPM_P2
2020/12/31 00:01:28;;;;;;;4.13;1.90;;;;;;;;;;10446435;28;20537;-71
2020/12/31 00:06:29;;;;;;;3.63;1.70;;;;;;;;;;10447874;28;20209;-73
2020/12/31 00:11:32;;;;;;;2.57;1.60;;;;;;;;;;10453071;28;20189;-72
2020/12/31 00:16:34;;;;;;;4.13;2.00;;;;;;;;;;10455120;28;20343;-72
2020/12/31 00:21:36;;;;;;;4.03;1.90;;;;;;;;;;10456777;28;20558;-72
2020/12/31 00:26:37;;;;;;;3.97;1.90;;;;;;;;;;10438902;28;20229;-70
2020/12/31 00:31:40;;;;;;;4.90;2.20;;;;;;;;;;10423357;28;20228;-72
2020/12/31 00:36:42;;;;;;;2.37;1.30;;;;;;;;;;10447345;28;20731;-72
2020/12/31 00:41:44;;;;;;;4.47;2.17;;;;;;;;;;10433798;28;20255;-72
2020/12/31 00:46:48;;;;;;;5.37;2.20;;;;;;;;;;10456263;28;20241;-73
2020/12/31 00:51:49;;;;;;;4.10;2.03;;;;;;;;;;10446546;28;20210;-72
2020/12/31 00:56:51;;;;;;;5.50;2.50;;;;;;;;;;10455784;28;20251;-72
2020/12/31 01:01:53;;;;;;;10.23;3.93;;;;;;;;;;10450535;28;20624;-73
2020/12/31 01:06:55;;;;;;;5.27;2.53;;;;;;;;;;10436158;28;20279;-71
2020/12/31 01:11:56;;;;;;;4.70;2.40;;;;;;;;;;10442494;28;20356;-72
2020/12/31 01:16:59;;;;;;;4.97;2.10;;;;;;;;;;10468281;28;20213;-72
2020/12/31 01:22:00;;;;;;;3.93;2.03;;;;;;;;;;10439921;28;20576;-73
2020/12/31 01:27:02;;;;;;;4.00;2.17;;;;;;;;;;10433312;28;20278;-72
2020/12/31 01:32:04;;;;;;;3.37;1.80;;;;;;;;;;10464706;28;20208;-72
2020/12/31 01:37:06;;;;;;;7.50;2.90;;;;;;;;;;10427709;28;20216;-72
2020/12/31 01:42:07;;;;;;;3.70;1.80;;;;;;;;;;10435433;28;20208;-72
2020/12/31 01:47:10;;;;;;;6.43;2.70;;;;;;;;;;10454040;28;20304;-70
2020/12/31 01:52:14;;;;;;;5.73;2.83;;;;;;;;;;10446046;28;20185;-70
2020/12/31 01:57:15;;;;;;;5.03;2.37;;;;;;;;;;10442331;28;20928;-72
2020/12/31 02:02:17;;;;;;;8.20;3.30;;;;;;;;;;10438322;28;20211;-70
2020/12/31 02:07:19;;;;;;;5.63;2.47;;;;;;;;;;10444015;28;20327;-72
2020/12/31 02:12:21;;;;;;;6.90;3.10;;;;;;;;;;10442700;28;20190;-72
2020/12/31 02:17:23;;;;;;;6.27;2.77;;;;;;;;;;10429749;28;20312;-72
2020/12/31 02:22:26;;;;;;;6.30;2.93;;;;;;;;;;10439199;28;20300;-69
2020/12/31 02:27:27;;;;;;;6.60;2.83;;;;;;;;;;10444891;28;20236;-71
2020/12/31 02:32:29;;;;;;;7.00;3.20;;;;;;;;;;10447622;28;20594;-72
2020/12/31 02:37:31;;;;;;;8.10;3.37;;;;;;;;;;10446661;28;20604;-72
2020/12/31 02:42:32;;;;;;;3.10;1.70;;;;;;;;;;10464830;28;20216;-72
2020/12/31 02:47:37;;;;;;;8.60;3.50;;;;;;;;;;10446653;28;20280;-69
2020/12/31 02:52:39;;;;;;;6.50;3.43;;;;;;;;;;10456145;28;20247;-72
2020/12/31 02:57:41;;;;;;;7.10;3.47;;;;;;;;;;10451646;28;20433;-71
2020/12/31 03:02:43;;;;;;;6.20;2.80;;;;;;;;;;10437370;28;20209;-73
2020/12/31 03:07:45;;;;;;;7.80;3.30;;;;;;;;;;10458604;28;20209;-71
2020/12/31 03:12:46;;;;;;;5.90;3.10;;;;;;;;;;10463363;28;20201;-71
2020/12/31 03:17:48;;;;;;;6.93;3.17;;;;;;;;;;10443896;28;20193;-70
2020/12/31 03:22:50;;;;;;;3.17;1.47;;;;;;;;;;10438390;28;20322;-72
2020/12/31 03:27:52;;;;;;;7.43;3.30;;;;;;;;;;10453679;28;20260;-72
2020/12/31 03:32:53;;;;;;;5.83;3.00;;;;;;;;;;10454332;28;20580;-73
2020/12/31 03:37:56;;;;;;;6.70;3.17;;;;;;;;;;10447645;28;20181;-72
2020/12/31 03:42:57;;;;;;;4.57;1.47;;;;;;;;;;10432079;28;20299;-71
2020/12/31 03:47:59;;;;;;;6.30;2.80;;;;;;;;;;10459058;28;20246;-69
2020/12/31 03:53:01;;;;;;;5.63;2.50;;;;;;;;;;10447683;28;20177;-71
2020/12/31 03:58:03;;;;;;;6.47;2.70;;;;;;;;;;10445406;28;20605;-72
2020/12/31 04:03:05;;;;;;;5.13;2.60;;;;;;;;;;10471357;28;20228;-71
2020/12/31 04:08:07;;;;;;;5.90;2.83;;;;;;;;;;10441133;28;20196;-71
2020/12/31 04:13:09;;;;;;;6.90;2.73;;;;;;;;;;10440608;28;20259;-71
2020/12/31 04:18:10;;;;;;;8.00;3.47;;;;;;;;;;10445240;28;20203;-72
2020/12/31 04:23:13;;;;;;;7.53;3.70;;;;;;;;;;10452587;28;20274;-69
2020/12/31 04:28:14;;;;;;;6.30;3.20;;;;;;;;;;10462639;28;20249;-71
2020/12/31 04:33:17;;;;;;;6.67;3.30;;;;;;;;;;10454109;28;20687;-72
2020/12/31 04:38:20;;;;;;;6.13;2.70;;;;;;;;;;10455770;28;20727;-71
2020/12/31 04:43:21;;;;;;;6.80;3.30;;;;;;;;;;10453998;28;20274;-71
2020/12/31 04:48:26;;;;;;;4.80;2.43;;;;;;;;;;10453826;28;20336;-71
2020/12/31 04:53:29;;;;;;;7.93;3.80;;;;;;;;;;10448509;28;20213;-72
2020/12/31 04:58:30;;;;;;;7.77;3.30;;;;;;;;;;10429185;28;20203;-71
2020/12/31 05:03:32;;;;;;;8.83;3.93;;;;;;;;;;10452167;28;20208;-71
2020/12/31 05:08:34;;;;;;;10.10;3.80;;;;;;;;;;10428039;28;20549;-71
2020/12/31 05:13:41;;;;;;;7.23;3.70;;;;;;;;;;10419771;28;20347;-71
2020/12/31 05:18:43;;;;;;;7.67;3.50;;;;;;;;;;10456710;28;20319;-72
2020/12/31 05:23:45;;;;;;;4.53;2.23;;;;;;;;;;10420921;28;20617;-70
2020/12/31 05:28:49;;;;;;;5.87;2.93;;;;;;;;;;10460938;28;20185;-72
2020/12/31 05:33:50;;;;;;;6.40;3.03;;;;;;;;;;10463648;28;20642;-70
2020/12/31 05:39:03;;;;;;;5.97;2.70;;;;;;;;;;10438062;28;20463;-70
2020/12/31 05:44:06;;;;;;;6.30;2.83;;;;;;;;;;10441259;28;20750;-70
2020/12/31 05:49:09;;;;;;;3.13;1.40;;;;;;;;;;10420397;28;20629;-70
2020/12/31 05:54:13;;;;;;;3.27;1.57;;;;;;;;;;10438001;28;20704;-70
2020/12/31 05:59:19;;;;;;;5.43;2.23;;;;;;;;;;10432810;28;20252;-71
2020/12/31 06:04:32;;;;;;;2.10;0.90;;;;;;;;;;10443762;28;20276;-71
2020/12/31 06:09:35;;;;;;;5.60;2.30;;;;;;;;;;10434693;28;20272;-71
2020/12/31 06:14:37;;;;;;;4.10;1.97;;;;;;;;;;10451305;28;20665;-71
2020/12/31 06:19:39;;;;;;;4.37;1.80;;;;;;;;;;10443165;28;20216;-72
2020/12/31 06:24:42;;;;;;;7.07;2.70;;;;;;;;;;10450764;28;20708;-70
2020/12/31 06:29:46;;;;;;;11.43;4.93;;;;;;;;;;10430973;28;20312;-71
2020/12/31 06:34:48;;;;;;;13.53;5.20;;;;;;;;;;10424983;28;20585;-70
2020/12/31 06:39:51;;;;;;;24.27;10.60;;;;;;;;;;10450054;28;20295;-71
2020/12/31 06:44:52;;;;;;;11.10;4.60;;;;;;;;;;10430086;28;20260;-71
2020/12/31 06:49:55;;;;;;;7.73;3.30;;;;;;;;;;10435613;28;20238;-71
2020/12/31 06:54:58;;;;;;;5.70;2.80;;;;;;;;;;10437188;28;20255;-72
2020/12/31 06:59:59;;;;;;;5.27;2.57;;;;;;;;;;10451880;28;20213;-71
2020/12/31 07:05:18;;;;;;;3.80;2.00;;;;;;;;;;10436775;28;20271;-72
2020/12/31 07:10:21;;;;;;;4.37;1.77;;;;;;;;;;10448742;28;20202;-71
2020/12/31 07:15:37;;;;;;;4.70;1.83;;;;;;;;;;10434209;28;20210;-72
2020/12/31 07:20:45;;;;;;;5.33;2.10;;;;;;;;;;10448790;28;20297;-72
2020/12/31 07:25:47;;;;;;;4.50;1.70;;;;;;;;;;10448392;28;20237;-73
2020/12/31 07:30:52;;;;;;;5.63;2.00;;;;;;;;;;10428657;28;20186;-72
2020/12/31 07:35:54;;;;;;;4.70;1.60;;;;;;;;;;10461323;28;20303;-73
2020/12/31 07:40:56;;;;;;;3.60;1.63;;;;;;;;;;10457034;28;20247;-71
2020/12/31 07:45:58;;;;;;;3.00;1.47;;;;;;;;;;10456610;28;20613;-70
2020/12/31 07:51:01;;;;;;;5.13;2.10;;;;;;;;;;10441688;28;20285;-71
2020/12/31 07:56:06;;;;;;;3.07;1.50;;;;;;;;;;10437986;28;20212;-70
2020/12/31 08:01:08;;;;;;;2.80;1.60;;;;;;;;;;10434055;28;20213;-72
2020/12/31 08:06:11;;;;;;;2.23;1.30;;;;;;;;;;10451504;28;20677;-70
2020/12/31 08:11:14;;;;;;;3.33;1.80;;;;;;;;;;10454377;28;20267;-69
2020/12/31 08:16:15;;;;;;;4.27;1.90;;;;;;;;;;10443103;28;20297;-70
2020/12/31 08:21:17;;;;;;;5.63;2.50;;;;;;;;;;10455488;28;20240;-70
2020/12/31 08:26:20;;;;;;;3.43;1.63;;;;;;;;;;10455667;28;20213;-69
2020/12/31 08:31:23;;;;;;;3.23;1.57;;;;;;;;;;10446061;28;20209;-71
2020/12/31 08:36:25;;;;;;;4.30;1.70;;;;;;;;;;10458241;28;20218;-71
2020/12/31 08:41:28;;;;;;;2.40;1.40;;;;;;;;;;10440716;28;20209;-71
2020/12/31 08:46:29;;;;;;;2.67;1.40;;;;;;;;;;10457986;28;20247;-73
2020/12/31 08:51:31;;;;;;;3.20;1.60;;;;;;;;;;10459057;28;20191;-73
2020/12/31 08:56:33;;;;;;;1.87;1.30;;;;;;;;;;10460979;28;20845;-72
2020/12/31 09:01:36;;;;;;;2.87;1.47;;;;;;;;;;10459588;28;20205;-72
2020/12/31 09:06:42;;;;;;;2.87;1.80;;;;;;;;;;10458975;28;20220;-72
2020/12/31 09:11:55;;;;;;;3.87;1.37;;;;;;;;;;10455170;28;20182;-72
2020/12/31 09:16:57;;;;;;;4.33;2.00;;;;;;;;;;10444550;28;20217;-73
2020/12/31 09:21:58;;;;;;;4.13;2.27;;;;;;;;;;10445602;28;20237;-73
2020/12/31 09:27:01;;;;;;;4.63;2.43;;;;;;;;;;10436437;28;20633;-72
2020/12/31 09:32:04;;;;;;;6.47;2.30;;;;;;;;;;10427080;28;20207;-71
2020/12/31 09:37:05;;;;;;;2.87;1.77;;;;;;;;;;10455668;28;20262;-72
2020/12/31 09:42:08;;;;;;;4.17;2.30;;;;;;;;;;10466909;28;20243;-72
2020/12/31 09:47:09;;;;;;;5.50;2.20;;;;;;;;;;10454221;28;20208;-72
2020/12/31 09:52:11;;;;;;;2.97;1.70;;;;;;;;;;10460460;28;20217;-70
2020/12/31 09:57:13;;;;;;;3.57;1.93;;;;;;;;;;10447096;28;20569;-71
2020/12/31 10:02:15;;;;;;;6.13;2.00;;;;;;;;;;10427625;28;20209;-72
2020/12/31 10:07:16;;;;;;;2.03;1.40;;;;;;;;;;10440150;28;20217;-72
2020/12/31 10:12:19;;;;;;;2.93;1.70;;;;;;;;;;10397090;28;20182;-72
2020/12/31 10:17:20;;;;;;;5.50;2.23;;;;;;;;;;10440443;28;20250;-74
2020/12/31 10:22:22;;;;;;;4.93;2.23;;;;;;;;;;10447168;28;20236;-72
2020/12/31 10:27:24;;;;;;;5.07;2.83;;;;;;;;;;10442618;28;20197;-72
2020/12/31 10:32:26;;;;;;;4.20;2.00;;;;;;;;;;10439808;28;20216;-72
2020/12/31 10:37:27;;;;;;;5.03;2.30;;;;;;;;;;10445769;28;20208;-72
2020/12/31 10:42:30;;;;;;;4.17;2.17;;;;;;;;;;10434798;28;20739;-71
2020/12/31 10:47:31;;;;;;;4.80;2.17;;;;;;;;;;10450024;28;20636;-72
2020/12/31 10:52:33;;;;;;;3.27;2.00;;;;;;;;;;10430723;28;20235;-72
2020/12/31 10:57:35;;;;;;;4.70;2.23;;;;;;;;;;10453539;28;20311;-73
2020/12/31 11:02:37;;;;;;;3.13;2.10;;;;;;;;;;10452775;28;20204;-72
2020/12/31 11:07:38;;;;;;;3.93;1.83;;;;;;;;;;10437450;28;20239;-71
2020/12/31 11:12:41;;;;;;;4.17;1.90;;;;;;;;;;10453481;28;20195;-72
2020/12/31 11:17:43;;;;;;;2.10;1.60;;;;;;;;;;10451581;28;20278;-72
2020/12/31 11:22:44;;;;;;;4.17;2.43;;;;;;;;;;10436107;28;20674;-72
2020/12/31 11:27:46;;;;;;;3.33;2.40;;;;;;;;;;10443361;28;20866;-72
2020/12/31 11:32:48;;;;;;;3.50;2.40;;;;;;;;;;10469450;28;20191;-72
2020/12/31 11:37:49;;;;;;;3.27;2.23;;;;;;;;;;10444061;28;20299;-72
2020/12/31 11:42:52;;;;;;;3.57;2.20;;;;;;;;;;10449431;28;20197;-72
2020/12/31 11:47:53;;;;;;;4.17;2.30;;;;;;;;;;10456306;28;20247;-73
2020/12/31 11:52:55;;;;;;;5.83;2.33;;;;;;;;;;10434118;28;20197;-73
2020/12/31 11:57:57;;;;;;;4.73;2.20;;;;;;;;;;10457106;28;20300;-73
2020/12/31 12:02:59;;;;;;;5.13;2.70;;;;;;;;;;10454348;28;20262;-71
2020/12/31 12:08:00;;;;;;;5.53;2.23;;;;;;;;;;10445670;28;20185;-73
2020/12/31 12:13:05;;;;;;;4.17;2.47;;;;;;;;;;10445938;28;20608;-73
2020/12/31 12:18:07;;;;;;;3.97;2.07;;;;;;;;;;10448566;28;20491;-69
2020/12/31 12:23:08;;;;;;;4.30;2.50;;;;;;;;;;10434904;28;20244;-69
2020/12/31 12:28:11;;;;;;;4.23;2.17;;;;;;;;;;10454613;28;20201;-69
2020/12/31 12:33:12;;;;;;;1.63;1.17;;;;;;;;;;10448381;28;20267;-69
2020/12/31 12:38:14;;;;;;;5.17;2.20;;;;;;;;;;10445362;28;20258;-69
2020/12/31 12:43:16;;;;;;;2.87;1.53;;;;;;;;;;10445118;28;20319;-68
2020/12/31 12:48:18;;;;;;;5.27;2.10;;;;;;;;;;10441899;28;20506;-68
2020/12/31 12:53:19;;;;;;;6.30;2.07;;;;;;;;;;10435778;28;20295;-69
2020/12/31 12:58:22;;;;;;;6.17;2.60;;;;;;;;;;10422340;28;20584;-68
2020/12/31 13:03:24;;;;;;;5.03;2.50;;;;;;;;;;10433075;28;20307;-67
2020/12/31 13:08:25;;;;;;;5.00;2.60;;;;;;;;;;10443676;28;20252;-69
2020/12/31 13:13:28;;;;;;;3.83;2.00;;;;;;;;;;10435905;28;20233;-69
2020/12/31 13:18:29;;;;;;;6.20;2.30;;;;;;;;;;10422174;28;20288;-68
2020/12/31 13:23:31;;;;;;;5.07;2.20;;;;;;;;;;10415134;28;20293;-70
2020/12/31 13:28:34;;;;;;;5.20;2.70;;;;;;;;;;10424434;28;20190;-69
2020/12/31 13:33:36;;;;;;;4.90;2.60;;;;;;;;;;10445613;28;20208;-69
2020/12/31 13:38:37;;;;;;;4.20;2.40;;;;;;;;;;10434220;28;20193;-69
2020/12/31 13:43:40;;;;;;;5.97;2.40;;;;;;;;;;10437946;28;20304;-69
2020/12/31 13:48:41;;;;;;;3.83;2.23;;;;;;;;;;10433304;28;20660;-68
2020/12/31 13:53:43;;;;;;;5.17;2.20;;;;;;;;;;10409577;28;20288;-68
2020/12/31 13:58:46;;;;;;;5.23;2.40;;;;;;;;;;10435624;28;20194;-68
2020/12/31 14:03:47;;;;;;;3.80;1.43;;;;;;;;;;10453878;28;20227;-70
2020/12/31 14:08:49;;;;;;;3.00;1.67;;;;;;;;;;10437232;28;20573;-70
2020/12/31 14:13:52;;;;;;;6.63;2.37;;;;;;;;;;10436167;28;20205;-66
2020/12/31 14:18:53;;;;;;;4.53;2.00;;;;;;;;;;10460093;28;20195;-67
2020/12/31 14:23:55;;;;;;;4.03;1.90;;;;;;;;;;10440352;28;20218;-67
2020/12/31 14:28:57;;;;;;;5.43;2.40;;;;;;;;;;10449337;28;20275;-69
2020/12/31 14:33:59;;;;;;;5.00;1.83;;;;;;;;;;10459203;28;20286;-69
2020/12/31 14:39:00;;;;;;;6.43;2.67;;;;;;;;;;10453422;28;20181;-69
2020/12/31 14:44:03;;;;;;;6.77;2.47;;;;;;;;;;10449333;28;20560;-70
2020/12/31 14:49:04;;;;;;;3.73;1.53;;;;;;;;;;10437913;28;20553;-68
2020/12/31 14:54:07;;;;;;;6.93;2.40;;;;;;;;;;10442058;28;20227;-69
2020/12/31 14:59:09;;;;;;;5.90;2.93;;;;;;;;;;10443096;28;20672;-68
2020/12/31 15:04:11;;;;;;;7.77;2.57;;;;;;;;;;10414264;28;20217;-69
2020/12/31 15:09:12;;;;;;;5.00;1.90;;;;;;;;;;10441206;28;20185;-77
2020/12/31 15:14:30;;;;;;;5.93;2.70;;;;;;;;;;10447677;28;20658;-69
2020/12/31 15:19:34;;;;;;;9.00;3.47;;;;;;;;;;10445443;28;20193;-70
2020/12/31 15:24:36;;;;;;;9.37;4.10;;;;;;;;;;10437295;28;20213;-69
2020/12/31 15:29:38;;;;;;;8.77;4.20;;;;;;;;;;10447621;28;20196;-69
2020/12/31 15:34:40;;;;;;;11.07;4.53;;;;;;;;;;10428267;28;20210;-69
2020/12/31 15:39:41;;;;;;;7.93;4.13;;;;;;;;;;10448086;28;20181;-69
2020/12/31 15:44:44;;;;;;;7.67;3.63;;;;;;;;;;10453289;28;20247;-70
2020/12/31 15:49:46;;;;;;;9.47;4.23;;;;;;;;;;10459887;28;20238;-71
2020/12/31 15:54:47;;;;;;;8.60;4.13;;;;;;;;;;10443227;28;20213;-70
2020/12/31 15:59:49;;;;;;;10.00;4.10;;;;;;;;;;10461003;28;20251;-71
2020/12/31 16:04:51;;;;;;;8.90;3.80;;;;;;;;;;10440661;28;20244;-69
2020/12/31 16:09:53;;;;;;;8.93;4.10;;;;;;;;;;10453952;28;20194;-70
2020/12/31 16:14:56;;;;;;;9.50;3.70;;;;;;;;;;10458993;28;20217;-70
2020/12/31 16:19:57;;;;;;;3.83;2.03;;;;;;;;;;10460607;28;20237;-70
2020/12/31 16:24:59;;;;;;;2.50;1.40;;;;;;;;;;10452641;28;20799;-69
2020/12/31 16:30:01;;;;;;;7.17;3.27;;;;;;;;;;10459031;28;20215;-70
2020/12/31 16:35:03;;;;;;;7.80;3.60;;;;;;;;;;10442948;28;20249;-70
2020/12/31 16:40:06;;;;;;;8.67;3.43;;;;;;;;;;10452202;28;20194;-70
2020/12/31 16:45:09;;;;;;;5.87;2.37;;;;;;;;;;10442255;28;20296;-68
2020/12/31 16:50:11;;;;;;;10.80;3.30;;;;;;;;;;10461210;28;20211;-68
2020/12/31 16:55:13;;;;;;;10.13;4.00;;;;;;;;;;10458385;28;20696;-68
2020/12/31 17:00:16;;;;;;;6.40;2.87;;;;;;;;;;10456537;28;20188;-68
2020/12/31 17:05:18;;;;;;;9.97;3.93;;;;;;;;;;10456971;28;20258;-69
2020/12/31 17:10:19;;;;;;;9.00;3.80;;;;;;;;;;10426967;28;20205;-68
2020/12/31 17:15:22;;;;;;;9.57;3.97;;;;;;;;;;10425460;28;20311;-70
2020/12/31 17:20:24;;;;;;;4.63;2.13;;;;;;;;;;10429423;28;20225;-69
2020/12/31 17:25:26;;;;;;;3.53;1.83;;;;;;;;;;10444258;28;20292;-68
2020/12/31 17:30:28;;;;;;;7.50;3.97;;;;;;;;;;10449027;28;20278;-69
2020/12/31 17:35:30;;;;;;;8.00;4.10;;;;;;;;;;10428807;28;20225;-69
2020/12/31 17:40:37;;;;;;;7.87;3.07;;;;;;;;;;10438030;28;20238;-68
2020/12/31 17:45:40;;;;;;;11.23;4.00;;;;;;;;;;10437464;28;20320;-68
2020/12/31 17:50:41;;;;;;;11.63;4.53;;;;;;;;;;10433133;28;20208;-68
2020/12/31 17:55:43;;;;;;;10.27;4.83;;;;;;;;;;10446053;28;20271;-69
2020/12/31 18:00:46;;;;;;;9.73;4.50;;;;;;;;;;10439790;28;20657;-69
2020/12/31 18:05:49;;;;;;;9.63;5.03;;;;;;;;;;10436013;28;20237;-69
2020/12/31 18:10:51;;;;;;;9.33;4.13;;;;;;;;;;10455818;28;20796;-69
2020/12/31 18:15:54;;;;;;;9.03;4.50;;;;;;;;;;10453641;28;20692;-69
2020/12/31 18:20:56;;;;;;;10.90;4.30;;;;;;;;;;10444478;28;20296;-68
2020/12/31 18:25:58;;;;;;;10.57;5.07;;;;;;;;;;10470011;28;20217;-68
2020/12/31 18:31:00;;;;;;;9.70;4.17;;;;;;;;;;10437864;28;20201;-68
2020/12/31 18:36:02;;;;;;;9.10;4.63;;;;;;;;;;10418772;28;20216;-68
2020/12/31 18:41:03;;;;;;;10.67;5.17;;;;;;;;;;10455849;28;20288;-68
2020/12/31 18:46:06;;;;;;;10.87;4.53;;;;;;;;;;10405509;28;20697;-69
2020/12/31 18:51:07;;;;;;;11.10;4.40;;;;;;;;;;10437490;28;20279;-67
2020/12/31 18:56:10;;;;;;;11.57;5.50;;;;;;;;;;10439296;28;20224;-67
2020/12/31 19:01:13;;;;;;;11.87;4.93;;;;;;;;;;10434480;28;20212;-68
2020/12/31 19:06:14;;;;;;;11.23;5.07;;;;;;;;;;10443438;28;20536;-68
2020/12/31 19:11:16;;;;;;;11.47;4.23;;;;;;;;;;10434116;28;20189;-70
2020/12/31 19:16:18;;;;;;;11.93;4.87;;;;;;;;;;10426901;28;20205;-67
2020/12/31 19:21:20;;;;;;;8.73;3.77;;;;;;;;;;10426092;28;20205;-66
2020/12/31 19:26:21;;;;;;;12.43;3.73;;;;;;;;;;10439502;28;20209;-67
2020/12/31 19:31:24;;;;;;;7.10;3.50;;;;;;;;;;10459639;28;20545;-68
2020/12/31 19:36:25;;;;;;;10.43;4.90;;;;;;;;;;10442399;28;20212;-68
2020/12/31 19:41:27;;;;;;;8.00;3.70;;;;;;;;;;10458957;28;20567;-68
2020/12/31 19:46:30;;;;;;;12.50;5.63;;;;;;;;;;10441083;28;20565;-68
2020/12/31 19:51:35;;;;;;;12.17;6.33;;;;;;;;;;10459662;28;20273;-68
2020/12/31 19:56:37;;;;;;;12.97;6.27;;;;;;;;;;10460730;28;20232;-68
2020/12/31 20:01:39;;;;;;;3.90;2.00;;;;;;;;;;10455074;28;20385;-68
2020/12/31 20:06:42;;;;;;;13.87;6.83;;;;;;;;;;10438730;28;20275;-66
2020/12/31 20:11:43;;;;;;;12.97;6.47;;;;;;;;;;10445534;28;20189;-67
2020/12/31 20:16:49;;;;;;;13.47;6.83;;;;;;;;;;10439686;28;20216;-67
2020/12/31 20:21:51;;;;;;;13.47;6.57;;;;;;;;;;10448253;28;20211;-67
2020/12/31 20:26:54;;;;;;;15.07;6.50;;;;;;;;;;10448746;28;20545;-69
2020/12/31 20:32:00;;;;;;;15.63;8.43;;;;;;;;;;10440003;28;20221;-68
2020/12/31 20:37:05;;;;;;;14.20;7.80;;;;;;;;;;10447489;28;20298;-68
2020/12/31 20:42:07;;;;;;;13.40;7.27;;;;;;;;;;10440775;28;20760;-68
2020/12/31 20:47:09;;;;;;;13.77;7.43;;;;;;;;;;10456873;28;20213;-68
2020/12/31 20:52:11;;;;;;;16.00;8.43;;;;;;;;;;10426848;28;20276;-69
2020/12/31 20:57:13;;;;;;;14.73;7.40;;;;;;;;;;10465770;28;20263;-68
2020/12/31 21:02:15;;;;;;;15.27;7.47;;;;;;;;;;10443627;28;20208;-68
2020/12/31 21:07:17;;;;;;;16.73;9.13;;;;;;;;;;10457604;28;20259;-67
2020/12/31 21:12:19;;;;;;;16.33;8.97;;;;;;;;;;10457820;28;20577;-67
2020/12/31 21:17:22;;;;;;;16.10;8.83;;;;;;;;;;10432815;28;20318;-68
2020/12/31 21:22:24;;;;;;;15.37;8.83;;;;;;;;;;10438368;28;20776;-67
2020/12/31 21:27:26;;;;;;;18.07;8.57;;;;;;;;;;10434392;28;20204;-68
2020/12/31 21:32:33;;;;;;;18.57;10.03;;;;;;;;;;10416131;28;20204;-69
2020/12/31 21:37:35;;;;;;;19.43;10.43;;;;;;;;;;10442185;28;20200;-68
2020/12/31 21:42:38;;;;;;;15.83;9.03;;;;;;;;;;10457450;28;20262;-69
2020/12/31 21:47:47;;;;;;;16.73;9.70;;;;;;;;;;10446470;28;20715;-69
2020/12/31 21:52:48;;;;;;;18.23;9.93;;;;;;;;;;10431574;28;20518;-69
2020/12/31 21:57:50;;;;;;;16.43;9.70;;;;;;;;;;10444572;28;20467;-67
2020/12/31 22:02:53;;;;;;;20.03;11.77;;;;;;;;;;10458253;28;20692;-68
2020/12/31 22:07:54;;;;;;;18.53;10.40;;;;;;;;;;10466388;28;20196;-68
2020/12/31 22:12:56;;;;;;;20.50;11.20;;;;;;;;;;10458907;28;20272;-68
2020/12/31 22:17:58;;;;;;;17.20;9.03;;;;;;;;;;10448942;28;20243;-69
2020/12/31 22:23:00;;;;;;;17.77;10.00;;;;;;;;;;10457869;28;20626;-69
2020/12/31 22:28:01;;;;;;;10.47;4.17;;;;;;;;;;10431895;28;20556;-67
2020/12/31 22:33:04;;;;;;;17.87;10.30;;;;;;;;;;10436007;28;20192;-69
2020/12/31 22:38:06;;;;;;;18.00;9.93;;;;;;;;;;10446636;28;20186;-69
2020/12/31 22:43:08;;;;;;;17.47;9.53;;;;;;;;;;10463285;28;20220;-68
2020/12/31 22:48:10;;;;;;;16.57;10.67;;;;;;;;;;10443690;28;20561;-68
2020/12/31 22:53:12;;;;;;;16.90;10.37;;;;;;;;;;10439652;28;20263;-69
2020/12/31 22:58:14;;;;;;;19.27;10.23;;;;;;;;;;10430287;28;20200;-70
2020/12/31 23:03:19;;;;;;;97.47;61.47;;;;;;;;;;10452939;28;20279;-69
2020/12/31 23:08:21;;;;;;;23.43;12.30;;;;;;;;;;10420860;28;20275;-67
2020/12/31 23:13:22;;;;;;;26.87;15.50;;;;;;;;;;10431157;28;20667;-68
2020/12/31 23:18:25;;;;;;;23.27;12.63;;;;;;;;;;10457300;28;20196;-68
2020/12/31 23:23:26;;;;;;;35.37;20.70;;;;;;;;;;10453233;28;20299;-67
2020/12/31 23:28:28;;;;;;;18.47;9.30;;;;;;;;;;10442562;28;20628;-69
2020/12/31 23:33:30;;;;;;;23.30;11.37;;;;;;;;;;10435140;28;20288;-68
2020/12/31 23:38:32;;;;;;;11.50;5.10;;;;;;;;;;10423281;28;20201;-68
2020/12/31 23:43:34;;;;;;;24.17;11.63;;;;;;;;;;10454529;28;20579;-68
2020/12/31 23:48:36;;;;;;;31.37;15.97;;;;;;;;;;10447912;28;20220;-67
2020/12/31 23:53:38;;;;;;;28.03;16.10;;;;;;;;;;10450903;28;20209;-68
2020/12/31 23:58:39;;;;;;;14.10;5.73;;;;;;;;;;10426441;28;20307;-66
